createdAt,value
2019-05-18T00:01:13.594Z,11.33
2019-05-18T00:03:42.034Z,11.43
2019-05-18T00:06:10.418Z,11.57
2019-05-18T00:08:38.902Z,11.65
2019-05-18T00:11:07.369Z,11.71
2019-05-18T00:13:35.766Z,11.68
2019-05-18T00:16:04.252Z,11.75
2019-05-18T00:18:32.648Z,11.85
2019-05-18T00:21:01.104Z,12.02
2019-05-18T00:23:29.520Z,12.07
2019-05-18T00:25:57.988Z,12.12
2019-05-18T00:28:26.580Z,12.14
2019-05-18T00:30:55.005Z,12.22
2019-05-18T00:33:23.520Z,12.24
2019-05-18T00:35:51.927Z,12.22
2019-05-18T00:38:20.334Z,12.26
2019-05-18T00:40:48.745Z,12.31
2019-05-18T00:43:17.192Z,12.16
2019-05-18T00:45:45.609Z,12.24
2019-05-18T00:48:14.017Z,12.21
2019-05-18T00:50:42.469Z,12.03
2019-05-18T00:53:10.943Z,12.10
2019-05-18T00:55:39.428Z,11.96
2019-05-18T00:58:07.868Z,11.99
2019-05-18T01:00:36.334Z,11.97
2019-05-18T01:03:04.793Z,11.93
2019-05-18T01:05:33.183Z,12.06
2019-05-18T01:08:01.594Z,11.96
2019-05-18T01:10:30.068Z,12.02
2019-05-18T01:12:58.537Z,12.05
2019-05-18T01:15:27.133Z,12.07
2019-05-18T01:17:57.736Z,12.08
2019-05-18T01:20:25.732Z,12.05
2019-05-18T01:22:54.129Z,12.07
2019-05-18T01:25:22.570Z,12.16
2019-05-18T01:27:51.036Z,12.30
2019-05-18T01:30:19.595Z,12.25
2019-05-18T01:32:48.022Z,11.99
2019-05-18T01:35:16.559Z,11.79
2019-05-18T01:37:44.987Z,11.73
2019-05-18T01:40:13.761Z,11.57
2019-05-18T01:42:42.167Z,11.34
2019-05-18T01:45:16.896Z,11.12
2019-05-18T01:47:41.415Z,11.11
2019-05-18T01:50:10.073Z,11.04
2019-05-18T01:52:38.555Z,10.96
2019-05-18T01:55:08.106Z,11.01
2019-05-18T01:57:36.530Z,11.08
2019-05-18T02:00:09.498Z,10.99
2019-05-18T02:02:37.939Z,10.99
2019-05-18T02:05:06.814Z,10.99
2019-05-18T02:07:35.256Z,10.92
2019-05-18T02:10:05.014Z,10.89
2019-05-18T02:12:33.445Z,10.90
2019-05-18T02:15:02.155Z,10.94
2019-05-18T02:17:30.603Z,11.02
2019-05-18T02:19:59.048Z,10.97
2019-05-18T02:22:27.465Z,10.97
2019-05-18T02:24:55.956Z,11.02
2019-05-18T02:27:24.415Z,11.06
2019-05-18T02:29:52.852Z,11.02
2019-05-18T02:32:21.301Z,11.12
2019-05-18T02:34:49.736Z,11.20
2019-05-18T02:37:18.172Z,11.15
2019-05-18T02:39:48.221Z,11.19
2019-05-18T02:42:16.626Z,11.23
2019-05-18T02:44:45.027Z,11.19
2019-05-18T02:47:13.455Z,11.03
2019-05-18T02:49:41.906Z,10.90
2019-05-18T02:52:10.354Z,10.78
2019-05-18T02:54:38.799Z,10.68
2019-05-18T02:57:07.205Z,10.71
2019-05-18T02:59:35.659Z,10.72
2019-05-18T03:02:04.133Z,10.78
2019-05-18T03:04:32.560Z,10.81
2019-05-18T03:07:01.209Z,10.76
2019-05-18T03:09:29.638Z,10.72
2019-05-18T03:11:58.123Z,10.66
2019-05-18T03:14:26.650Z,10.68
2019-05-18T03:16:55.198Z,10.65
2019-05-18T03:19:23.615Z,10.53
2019-05-18T03:21:52.098Z,10.52
2019-05-18T03:24:20.580Z,10.57
2019-05-18T03:26:49.045Z,10.61
2019-05-18T03:29:17.483Z,10.56
2019-05-18T03:31:45.891Z,10.55
2019-05-18T03:34:14.413Z,10.49
2019-05-18T03:36:42.897Z,10.47
2019-05-18T03:39:11.326Z,10.58
2019-05-18T03:41:39.749Z,10.71
2019-05-18T03:44:08.239Z,10.77
2019-05-18T03:46:36.665Z,10.80
2019-05-18T03:49:05.167Z,10.84
2019-05-18T03:51:33.568Z,10.89
2019-05-18T03:54:01.972Z,11.02
2019-05-18T03:56:30.395Z,11.11
2019-05-18T03:58:58.808Z,11.31
2019-05-18T04:01:27.257Z,11.26
2019-05-18T04:03:55.691Z,11.07
2019-05-18T04:06:24.118Z,11.24
2019-05-18T04:08:52.513Z,11.24
2019-05-18T04:11:20.946Z,11.34
2019-05-18T04:13:49.393Z,11.32
2019-05-18T04:16:17.837Z,11.37
2019-05-18T04:18:46.255Z,11.60
2019-05-18T04:21:14.654Z,11.71
2019-05-18T04:23:43.132Z,11.86
2019-05-18T04:26:11.561Z,11.87
2019-05-18T04:28:39.978Z,12.00
2019-05-18T04:31:08.439Z,12.07
2019-05-18T04:33:36.888Z,12.09
2019-05-18T04:36:05.290Z,11.97
2019-05-18T04:38:33.704Z,12.14
2019-05-18T04:41:02.133Z,12.06
2019-05-18T04:43:30.558Z,12.09
2019-05-18T04:45:59.056Z,12.21
2019-05-18T04:48:27.494Z,12.11
2019-05-18T04:50:55.949Z,12.18
2019-05-18T04:53:24.344Z,12.24
2019-05-18T04:55:52.794Z,12.45
2019-05-18T04:58:21.211Z,12.48
2019-05-18T05:00:49.704Z,12.50
2019-05-18T05:03:18.054Z,12.41
2019-05-18T05:05:46.484Z,12.36
2019-05-18T05:08:14.889Z,12.39
2019-05-18T05:10:43.380Z,12.41
2019-05-18T05:13:11.849Z,12.49
2019-05-18T05:15:40.319Z,12.42
2019-05-18T05:18:08.836Z,12.53
2019-05-18T05:20:37.868Z,12.60
2019-05-18T05:23:06.337Z,12.71
2019-05-18T05:25:34.756Z,12.71
2019-05-18T05:28:03.181Z,12.76
2019-05-18T05:30:33.069Z,12.83
2019-05-18T05:33:01.539Z,12.87
2019-05-18T05:35:29.969Z,12.99
2019-05-18T05:37:58.384Z,12.83
2019-05-18T05:40:26.817Z,12.88
2019-05-18T05:42:55.263Z,12.89
2019-05-18T05:45:23.702Z,12.87
2019-05-18T05:47:53.014Z,12.74
2019-05-18T05:50:34.597Z,12.76
2019-05-18T05:52:51.730Z,12.94
2019-05-18T05:55:20.145Z,13.02
2019-05-18T05:57:48.559Z,13.25
2019-05-18T06:00:18.799Z,13.17
2019-05-18T06:02:47.292Z,13.27
2019-05-18T06:05:15.980Z,13.34
2019-05-18T06:07:44.387Z,13.21
2019-05-18T06:10:13.127Z,13.20
2019-05-18T06:12:41.560Z,13.22
2019-05-18T06:15:10.463Z,13.05
2019-05-18T06:17:38.884Z,13.19
2019-05-18T06:20:08.528Z,13.26
2019-05-18T06:22:37.144Z,13.56
2019-05-18T06:25:07.571Z,13.48
2019-05-18T06:27:36.255Z,13.59
2019-05-18T06:30:06.064Z,13.69
2019-05-18T06:32:34.476Z,13.73
2019-05-18T06:35:02.919Z,13.75
2019-05-18T06:37:31.330Z,13.82
2019-05-18T06:39:59.745Z,13.93
2019-05-18T06:42:28.160Z,14.02
2019-05-18T06:44:56.570Z,14.02
2019-05-18T06:47:24.991Z,14.08
2019-05-18T06:49:53.541Z,14.07
2019-05-18T06:52:21.976Z,14.16
2019-05-18T06:54:50.834Z,14.14
2019-05-18T06:57:20.054Z,14.27
2019-05-18T06:59:49.222Z,14.47
2019-05-18T07:02:17.630Z,14.65
2019-05-18T07:04:46.139Z,14.81
2019-05-18T07:07:14.557Z,14.99
2019-05-18T07:09:43.020Z,14.98
2019-05-18T07:12:11.459Z,15.04
2019-05-18T07:14:39.844Z,15.06
2019-05-18T07:17:08.282Z,15.13
2019-05-18T07:19:36.838Z,14.96
2019-05-18T07:22:05.261Z,15.21
2019-05-18T07:24:33.688Z,15.38
2019-05-18T07:27:02.125Z,15.40
2019-05-18T07:29:30.556Z,15.03
2019-05-18T07:31:59.031Z,15.40
2019-05-18T07:34:27.557Z,16.41
2019-05-18T07:36:56.127Z,16.16
2019-05-18T07:39:24.556Z,16.23
2019-05-18T07:41:53.981Z,16.22
2019-05-18T07:44:22.407Z,15.98
2019-05-18T07:46:50.852Z,15.99
2019-05-18T07:49:19.274Z,15.99
2019-05-18T07:51:47.705Z,16.52
2019-05-18T07:54:16.140Z,16.88
2019-05-18T07:56:44.568Z,17.12
2019-05-18T07:59:12.965Z,17.54
2019-05-18T08:01:41.369Z,17.60
2019-05-18T08:04:09.814Z,17.28
2019-05-18T08:06:38.248Z,17.57
2019-05-18T08:09:08.184Z,17.25
2019-05-18T08:11:36.605Z,17.62
2019-05-18T08:14:05.196Z,17.36
2019-05-18T08:16:33.624Z,17.52
2019-05-18T08:19:02.057Z,17.69
2019-05-18T08:21:30.469Z,17.86
2019-05-18T08:23:58.889Z,18.02
2019-05-18T08:26:27.383Z,19.29
2019-05-18T08:28:55.789Z,19.89
2019-05-18T08:31:24.402Z,21.24
2019-05-18T08:33:52.809Z,19.74
2019-05-18T08:36:21.242Z,19.54
2019-05-18T08:38:49.702Z,20.56
2019-05-18T08:41:18.124Z,21.24
2019-05-18T08:43:46.532Z,22.32
2019-05-18T08:46:14.973Z,20.62
2019-05-18T08:48:43.499Z,20.11
2019-05-18T08:51:12.009Z,19.50
2019-05-18T08:53:40.460Z,19.15
2019-05-18T08:56:08.923Z,19.63
2019-05-18T08:58:37.348Z,19.98
2019-05-18T09:01:05.786Z,21.29
2019-05-18T09:03:34.184Z,20.72
2019-05-18T09:06:02.777Z,20.70
2019-05-18T09:08:31.193Z,20.59
2019-05-18T09:10:59.597Z,21.35
2019-05-18T09:13:28.018Z,21.42
2019-05-18T09:15:56.461Z,20.88
2019-05-18T09:18:24.983Z,20.08
2019-05-18T09:20:53.403Z,20.12
2019-05-18T09:23:21.861Z,20.21
2019-05-18T09:25:50.307Z,20.80
2019-05-18T09:28:18.731Z,21.42
2019-05-18T09:30:47.135Z,20.66
2019-05-18T09:33:15.555Z,21.75
2019-05-18T09:35:44.005Z,22.43
2019-05-18T09:38:12.448Z,22.09
2019-05-18T09:40:40.854Z,21.85
2019-05-18T09:43:09.253Z,21.12
2019-05-18T09:45:37.687Z,21.98
2019-05-18T09:48:06.136Z,22.52
2019-05-18T09:50:34.522Z,20.78
2019-05-18T09:53:03.050Z,21.21
2019-05-18T09:55:31.468Z,21.55
2019-05-18T09:57:59.880Z,22.31
2019-05-18T10:00:28.719Z,22.21
2019-05-18T10:02:57.162Z,23.75
2019-05-18T10:05:25.603Z,23.04
2019-05-18T10:07:56.735Z,23.34
2019-05-18T10:10:25.418Z,23.18
2019-05-18T10:12:53.840Z,23.02
2019-05-18T10:15:22.276Z,22.35
2019-05-18T10:17:50.717Z,23.67
2019-05-18T10:20:20.359Z,22.94
2019-05-18T10:22:59.152Z,22.83
2019-05-18T10:25:18.910Z,23.26
2019-05-18T10:27:47.355Z,22.43
2019-05-18T10:30:16.097Z,22.93
2019-05-18T10:32:44.531Z,22.63
2019-05-18T10:35:13.740Z,22.14
2019-05-18T10:37:42.181Z,21.97
2019-05-18T10:40:11.458Z,22.44
2019-05-18T10:42:39.869Z,22.76
2019-05-18T10:45:09.329Z,22.28
2019-05-18T10:47:37.757Z,21.65
2019-05-18T10:50:07.047Z,22.90
2019-05-18T10:52:35.448Z,22.39
2019-05-18T10:55:05.753Z,23.40
2019-05-18T10:57:34.193Z,22.29
2019-05-18T11:00:02.991Z,22.35
2019-05-18T11:02:31.514Z,22.88
2019-05-18T11:04:59.950Z,21.88
2019-05-18T11:07:29.067Z,23.28
2019-05-18T11:09:57.674Z,23.45
2019-05-18T11:12:26.011Z,24.82
2019-05-18T11:14:54.464Z,25.00
2019-05-18T11:17:22.852Z,25.87
2019-05-18T11:19:51.269Z,25.65
2019-05-18T11:22:19.710Z,24.03
2019-05-18T11:24:48.123Z,25.00
2019-05-18T11:27:16.548Z,24.64
2019-05-18T11:29:44.953Z,23.48
2019-05-18T11:32:13.357Z,24.76
2019-05-18T11:34:41.782Z,24.53
2019-05-18T11:37:10.176Z,25.46
2019-05-18T11:39:38.573Z,26.47
2019-05-18T11:42:07.030Z,26.79
2019-05-18T11:44:35.513Z,26.83
2019-05-18T11:47:04.608Z,27.13
2019-05-18T11:49:33.327Z,26.15
2019-05-18T11:52:01.726Z,26.05
2019-05-18T11:54:30.245Z,26.76
2019-05-18T11:56:58.677Z,26.51
2019-05-18T11:59:27.070Z,26.60
2019-05-18T12:01:56.436Z,26.76
2019-05-18T12:04:24.825Z,26.26
2019-05-18T12:06:53.239Z,26.74
2019-05-18T12:09:21.675Z,26.99
2019-05-18T12:11:50.348Z,27.28
2019-05-18T12:14:18.775Z,27.49
2019-05-18T12:16:47.214Z,26.63
2019-05-18T12:19:15.632Z,26.95
2019-05-18T12:21:44.088Z,26.11
2019-05-18T12:24:15.438Z,26.74
2019-05-18T12:26:42.665Z,26.77
2019-05-18T12:29:11.058Z,27.29
2019-05-18T12:31:39.490Z,26.90
2019-05-18T12:34:07.902Z,26.61
2019-05-18T12:36:36.328Z,26.64
2019-05-18T12:39:06.465Z,26.89
2019-05-18T12:41:34.962Z,26.45
2019-05-18T12:44:03.437Z,26.13
2019-05-18T12:46:31.873Z,26.32
2019-05-18T12:49:00.261Z,26.60
2019-05-18T12:51:28.661Z,26.42
2019-05-18T12:53:57.085Z,26.63
2019-05-18T12:56:25.506Z,26.39
2019-05-18T12:58:53.956Z,26.76
2019-05-18T13:01:22.444Z,27.24
2019-05-18T13:03:50.858Z,27.56
2019-05-18T13:06:19.269Z,27.76
2019-05-18T13:08:47.719Z,27.41
2019-05-18T13:11:16.147Z,27.55
2019-05-18T13:13:44.573Z,25.91
2019-05-18T13:16:12.998Z,26.80
2019-05-18T13:18:41.418Z,24.21
2019-05-18T13:21:09.858Z,24.43
2019-05-18T13:23:38.298Z,24.22
2019-05-18T13:26:06.713Z,22.66
2019-05-18T13:28:35.136Z,19.87
2019-05-18T13:31:03.556Z,18.74
2019-05-18T13:33:31.969Z,18.62
2019-05-18T13:36:00.386Z,19.35
2019-05-18T13:38:28.788Z,18.99
2019-05-18T13:40:57.259Z,18.54
2019-05-18T13:43:25.673Z,19.17
2019-05-18T13:45:54.109Z,19.57
2019-05-18T13:48:22.543Z,18.66
2019-05-18T13:50:51.069Z,18.52
2019-05-18T13:53:19.462Z,18.64
2019-05-18T13:55:47.891Z,18.42
2019-05-18T13:58:16.349Z,18.78
2019-05-18T14:00:44.779Z,19.23
2019-05-18T14:03:13.207Z,19.49
2019-05-18T14:05:41.688Z,19.44
2019-05-18T14:08:15.553Z,19.58
2019-05-18T14:10:40.257Z,19.51
2019-05-18T14:13:08.664Z,19.26
2019-05-18T14:15:37.147Z,19.85
2019-05-18T14:18:05.584Z,19.99
2019-05-18T14:20:33.996Z,20.19
2019-05-18T14:23:03.319Z,20.38
2019-05-18T14:25:31.786Z,20.67
2019-05-18T14:28:00.194Z,20.58
2019-05-18T14:30:28.604Z,21.04
2019-05-18T14:32:57.813Z,21.16
2019-05-18T14:35:26.215Z,21.66
2019-05-18T14:37:54.639Z,21.81
2019-05-18T14:40:23.051Z,22.11
2019-05-18T14:42:51.473Z,22.18
2019-05-18T14:45:20.583Z,22.57
2019-05-18T14:47:49.063Z,22.73
2019-05-18T14:50:18.917Z,23.25
2019-05-18T14:52:47.332Z,23.24
2019-05-18T14:55:16.208Z,23.14
2019-05-18T14:57:44.627Z,22.15
2019-05-18T15:00:13.457Z,21.96
2019-05-18T15:02:41.896Z,22.13
2019-05-18T15:05:10.975Z,21.93
2019-05-18T15:07:39.380Z,21.97
2019-05-18T15:10:09.676Z,21.77
2019-05-18T15:12:38.211Z,22.19
2019-05-18T15:15:07.970Z,22.41
2019-05-18T15:17:36.533Z,22.69
2019-05-18T15:20:06.922Z,22.66
2019-05-18T15:22:35.345Z,22.49
2019-05-18T15:25:04.103Z,22.48
2019-05-18T15:27:37.531Z,22.28
2019-05-18T15:30:08.263Z,22.03
2019-05-18T15:32:36.859Z,21.97
2019-05-18T15:35:07.283Z,21.96
2019-05-18T15:37:35.763Z,22.08
2019-05-18T15:40:05.393Z,22.08
2019-05-18T15:42:33.963Z,21.99
2019-05-18T15:45:02.437Z,22.51
2019-05-18T15:47:31.553Z,22.68
2019-05-18T15:49:59.952Z,22.85
2019-05-18T15:52:28.343Z,22.68
2019-05-18T15:54:56.758Z,23.23
2019-05-18T15:57:25.173Z,23.25
2019-05-18T15:59:53.576Z,22.62
2019-05-18T16:02:21.999Z,23.03
2019-05-18T16:04:50.481Z,23.38
2019-05-18T16:07:18.887Z,23.75
2019-05-18T16:09:47.355Z,24.07
2019-05-18T16:12:15.782Z,23.02
2019-05-18T16:14:44.221Z,22.81
2019-05-18T16:17:12.639Z,22.91
2019-05-18T16:19:41.091Z,23.12
2019-05-18T16:22:09.500Z,22.93
2019-05-18T16:24:37.918Z,23.28
2019-05-18T16:27:06.342Z,23.38
2019-05-18T16:29:34.901Z,23.80
2019-05-18T16:32:03.328Z,23.74
2019-05-18T16:34:31.948Z,23.93
2019-05-18T16:37:00.901Z,23.46
2019-05-18T16:39:29.535Z,23.04
2019-05-18T16:41:57.942Z,23.08
2019-05-18T16:44:26.379Z,23.02
2019-05-18T16:46:54.803Z,23.19
2019-05-18T16:49:23.243Z,23.15
2019-05-18T16:51:51.671Z,23.08
2019-05-18T16:54:20.097Z,23.26
2019-05-18T16:56:48.526Z,23.07
2019-05-18T16:59:16.945Z,23.04
2019-05-18T17:01:45.448Z,22.74
2019-05-18T17:04:13.905Z,22.63
2019-05-18T17:06:42.360Z,22.63
2019-05-18T17:09:10.753Z,22.61
2019-05-18T17:11:39.201Z,22.67
2019-05-18T17:14:07.582Z,22.64
2019-05-18T17:16:35.992Z,22.51
2019-05-18T17:19:04.398Z,22.55
2019-05-18T17:21:32.835Z,22.34
2019-05-18T17:24:02.222Z,22.28
2019-05-18T17:26:30.667Z,22.23
2019-05-18T17:28:59.069Z,22.16
2019-05-18T17:31:27.497Z,21.94
2019-05-18T17:33:55.957Z,21.67
2019-05-18T17:36:24.344Z,21.96
2019-05-18T17:38:52.770Z,22.16
2019-05-18T17:41:21.174Z,22.17
2019-05-18T17:43:49.666Z,21.97
2019-05-18T17:46:18.081Z,22.09
2019-05-18T17:48:46.546Z,22.08
2019-05-18T17:51:15.008Z,22.22
2019-05-18T17:53:43.416Z,22.13
2019-05-18T17:56:11.806Z,21.94
2019-05-18T17:58:40.287Z,22.08
2019-05-18T18:01:08.805Z,21.93
2019-05-18T18:03:37.218Z,21.75
2019-05-18T18:06:05.631Z,21.87
2019-05-18T18:08:34.087Z,21.67
2019-05-18T18:11:02.553Z,21.81
2019-05-18T18:13:30.964Z,21.23
2019-05-18T18:15:59.387Z,20.48
2019-05-18T18:18:28.076Z,20.58
2019-05-18T18:20:56.497Z,20.91
2019-05-18T18:23:24.922Z,21.02
2019-05-18T18:25:53.338Z,21.24
2019-05-18T18:28:21.736Z,21.21
2019-05-18T18:30:50.147Z,21.13
2019-05-18T18:33:18.558Z,21.18
2019-05-18T18:35:47.078Z,21.08
2019-05-18T18:38:15.479Z,20.92
2019-05-18T18:40:44.139Z,20.74
2019-05-18T18:43:12.562Z,19.09
2019-05-18T18:45:40.995Z,18.69
2019-05-18T18:48:09.395Z,18.43
2019-05-18T18:50:37.807Z,17.91
2019-05-18T18:53:06.240Z,17.77
2019-05-18T18:55:34.690Z,18.03
2019-05-18T18:58:03.110Z,17.99
2019-05-18T19:00:31.576Z,18.08
2019-05-18T19:03:00.064Z,18.10
2019-05-18T19:05:28.500Z,18.06
2019-05-18T19:07:56.918Z,17.83
2019-05-18T19:10:25.396Z,17.81
2019-05-18T19:12:53.831Z,17.48
2019-05-18T19:15:22.259Z,17.32
2019-05-18T19:17:50.902Z,17.52
2019-05-18T19:20:19.549Z,17.64
2019-05-18T19:22:47.962Z,17.74
2019-05-18T19:25:16.713Z,17.70
2019-05-18T19:27:54.710Z,17.86
2019-05-18T19:30:15.623Z,17.95
2019-05-18T19:32:44.054Z,18.02
2019-05-18T19:35:13.581Z,18.08
2019-05-18T19:37:41.985Z,18.14
2019-05-18T19:40:10.776Z,18.08
2019-05-18T19:42:39.266Z,18.06
2019-05-18T19:45:08.572Z,18.03
2019-05-18T19:47:37.021Z,17.94
2019-05-18T19:50:06.648Z,17.61
2019-05-18T19:52:35.118Z,17.55
2019-05-18T19:55:04.433Z,17.14
2019-05-18T19:57:33.476Z,16.87
2019-05-18T20:00:02.273Z,16.77
2019-05-18T20:02:30.748Z,16.50
2019-05-18T20:05:07.614Z,16.49
2019-05-18T20:07:29.598Z,16.45
2019-05-18T20:09:58.002Z,16.67
2019-05-18T20:12:26.531Z,16.50
2019-05-18T20:14:54.947Z,16.24
2019-05-18T20:17:23.391Z,15.72
2019-05-18T20:19:51.817Z,15.65
2019-05-18T20:22:20.236Z,15.57
2019-05-18T20:24:48.667Z,15.45
2019-05-18T20:27:17.139Z,15.35
2019-05-18T20:29:45.597Z,15.29
2019-05-18T20:32:14.023Z,15.27
2019-05-18T20:34:42.458Z,15.24
2019-05-18T20:37:10.916Z,15.37
2019-05-18T20:39:39.337Z,15.39
2019-05-18T20:42:07.833Z,15.35
2019-05-18T20:44:36.281Z,15.28
2019-05-18T20:47:04.795Z,14.98
2019-05-18T20:49:33.854Z,15.05
2019-05-18T20:52:02.289Z,15.11
2019-05-18T20:54:30.694Z,15.07
2019-05-18T20:56:59.144Z,15.10
2019-05-18T20:59:27.573Z,15.12
2019-05-18T21:01:56.009Z,15.16
2019-05-18T21:04:24.481Z,15.17
2019-05-18T21:06:52.921Z,15.08
2019-05-18T21:09:21.494Z,15.03
2019-05-18T21:11:50.526Z,14.78
2019-05-18T21:14:18.935Z,14.78
2019-05-18T21:16:47.382Z,14.88
2019-05-18T21:19:15.797Z,14.80
2019-05-18T21:21:44.213Z,14.78
2019-05-18T21:24:12.644Z,14.71
2019-05-18T21:26:41.179Z,14.68
2019-05-18T21:29:09.585Z,14.74
2019-05-18T21:31:37.978Z,14.68
2019-05-18T21:34:06.441Z,14.68
2019-05-18T21:36:34.880Z,14.44
2019-05-18T21:39:05.500Z,14.35
2019-05-18T21:41:34.240Z,14.40
2019-05-18T21:44:02.668Z,14.29
2019-05-18T21:46:31.158Z,14.00
2019-05-18T21:48:59.582Z,13.99
2019-05-18T21:51:28.056Z,13.85
2019-05-18T21:53:56.541Z,13.99
2019-05-18T21:56:24.972Z,14.10
2019-05-18T21:58:53.467Z,14.29
2019-05-18T22:01:22.013Z,14.28
2019-05-18T22:03:50.473Z,14.27
2019-05-18T22:06:18.896Z,14.29
2019-05-18T22:08:47.275Z,14.37
2019-05-18T22:11:15.875Z,14.33
2019-05-18T22:13:44.296Z,14.34
2019-05-18T22:16:12.729Z,14.32
2019-05-18T22:18:41.160Z,14.25
2019-05-18T22:21:09.643Z,14.31
2019-05-18T22:23:38.062Z,14.33
2019-05-18T22:26:06.476Z,14.32
2019-05-18T22:28:34.986Z,14.24
2019-05-18T22:31:03.489Z,14.23
2019-05-18T22:33:31.911Z,14.21
2019-05-18T22:36:00.335Z,14.24
2019-05-18T22:38:28.757Z,14.27
2019-05-18T22:40:57.168Z,14.25
2019-05-18T22:43:25.658Z,14.22
2019-05-18T22:45:54.080Z,14.20
2019-05-18T22:48:22.559Z,14.20
2019-05-18T22:50:50.989Z,14.13
2019-05-18T22:53:19.427Z,14.15
2019-05-18T22:55:47.832Z,14.13
2019-05-18T22:58:16.274Z,14.01
2019-05-18T23:00:44.685Z,13.98
2019-05-18T23:03:13.099Z,14.01
2019-05-18T23:05:41.541Z,13.97
2019-05-18T23:08:09.997Z,13.96
2019-05-18T23:10:39.112Z,13.96
2019-05-18T23:13:07.551Z,13.90
2019-05-18T23:15:36.393Z,13.96
2019-05-18T23:18:05.343Z,14.04
2019-05-18T23:20:33.786Z,14.01
2019-05-18T23:23:02.235Z,14.02
2019-05-18T23:25:30.660Z,13.95
2019-05-18T23:27:59.100Z,14.02
2019-05-18T23:30:27.504Z,14.00
2019-05-18T23:32:55.933Z,13.83
2019-05-18T23:35:24.340Z,13.76
2019-05-18T23:37:52.764Z,13.66
2019-05-18T23:40:21.298Z,13.62
2019-05-18T23:42:49.747Z,13.69
2019-05-18T23:45:18.137Z,13.69
2019-05-18T23:47:46.555Z,13.60
2019-05-18T23:50:15.205Z,13.66
2019-05-18T23:52:43.626Z,13.70
2019-05-18T23:55:12.607Z,13.81
2019-05-18T23:57:41.006Z,13.89
